sensor_id;sensor_type;location;lat;lon;timestamp;pressure;altitude;pressure_sealevel;temperature;humidity
54666;BME280;40566;50.006;36.180;2023-02-20T00:00:18;98581.88;;;1.54;65.52
54666;BME280;40566;50.006;36.180;2023-02-20T00:05:21;98576.84;;;1.48;65.50
54666;BME280;40566;50.006;36.180;2023-02-20T00:10:21;98574.38;;;1.41;65.49
54666;BME280;40566;50.006;36.180;2023-02-20T00:15:23;98572.75;;;1.32;65.72
54666;BME280;40566;50.006;36.180;2023-02-20T00:20:24;98566.88;;;1.27;65.71
54666;BME280;40566;50.006;36.180;2023-02-20T00:25:25;98573.69;;;1.23;65.76
54666;BME280;40566;50.006;36.180;2023-02-20T00:30:26;98567.75;;;1.21;65.70
54666;BME280;40566;50.006;36.180;2023-02-20T00:35:26;98569.50;;;1.17;65.85
54666;BME280;40566;50.006;36.180;2023-02-20T00:40:27;98569.47;;;1.19;65.69
54666;BME280;40566;50.006;36.180;2023-02-20T00:45:28;98581.41;;;1.15;65.81
54666;BME280;40566;50.006;36.180;2023-02-20T00:50:28;98571.25;;;1.09;65.91
54666;BME280;40566;50.006;36.180;2023-02-20T00:55:29;98576.38;;;1.05;65.88
54666;BME280;40566;50.006;36.180;2023-02-20T01:00:30;98578.13;;;1.01;66.04
54666;BME280;40566;50.006;36.180;2023-02-20T01:05:31;98576.47;;;0.92;66.06
54666;BME280;40566;50.006;36.180;2023-02-20T01:10:32;98595.16;;;0.91;66.07
54666;BME280;40566;50.006;36.180;2023-02-20T01:15:32;98603.56;;;1.03;65.83
54666;BME280;40566;50.006;36.180;2023-02-20T01:20:33;98595.91;;;1.04;65.82
54666;BME280;40566;50.006;36.180;2023-02-20T01:25:34;98599.34;;;1.02;65.84
54666;BME280;40566;50.006;36.180;2023-02-20T01:30:34;98603.59;;;0.99;65.91
54666;BME280;40566;50.006;36.180;2023-02-20T01:35:35;98606.97;;;1.02;65.89
54666;BME280;40566;50.006;36.180;2023-02-20T01:40:36;98623.13;;;0.99;66.02
54666;BME280;40566;50.006;36.180;2023-02-20T01:45:38;98624.78;;;1.03;66.04
54666;BME280;40566;50.006;36.180;2023-02-20T01:50:41;98622.25;;;1.03;65.99
54666;BME280;40566;50.006;36.180;2023-02-20T01:55:48;98643.41;;;1.10;65.76
54666;BME280;40566;50.006;36.180;2023-02-20T02:00:50;98639.22;;;1.01;65.90
54666;BME280;40566;50.006;36.180;2023-02-20T02:05:57;98651.19;;;0.87;66.20
54666;BME280;40566;50.006;36.180;2023-02-20T02:11:00;98656.41;;;0.68;66.42
54666;BME280;40566;50.006;36.180;2023-02-20T02:43:41;98671.94;;;0.04;66.92
54666;BME280;40566;50.006;36.180;2023-02-20T02:54:24;98672.81;;;-0.08;66.90
54666;BME280;40566;50.006;36.180;2023-02-20T02:59:30;98655.91;;;-0.17;66.98
54666;BME280;40566;50.006;36.180;2023-02-20T03:04:33;98664.38;;;-0.23;67.02
54666;BME280;40566;50.006;36.180;2023-02-20T03:09:59;98666.94;;;-0.27;66.94
54666;BME280;40566;50.006;36.180;2023-02-20T03:15:08;98657.63;;;-0.37;67.31
54666;BME280;40566;50.006;36.180;2023-02-20T03:20:28;98677.94;;;-0.44;67.26
54666;BME280;40566;50.006;36.180;2023-02-20T03:25:38;98666.09;;;-0.55;67.38
54666;BME280;40566;50.006;36.180;2023-02-20T03:30:59;98662.72;;;-0.62;67.77
54666;BME280;40566;50.006;36.180;2023-02-20T03:36:06;98666.94;;;-0.66;67.55
54666;BME280;40566;50.006;36.180;2023-02-20T03:41:28;98674.56;;;-0.72;67.63
54666;BME280;40566;50.006;36.180;2023-02-20T03:46:49;98671.19;;;-0.82;67.62
54666;BME280;40566;50.006;36.180;2023-02-20T03:51:51;98680.50;;;-0.84;67.56
54666;BME280;40566;50.006;36.180;2023-02-20T03:57:07;98672.84;;;-0.93;67.58
54666;BME280;40566;50.006;36.180;2023-02-20T04:02:29;98677.09;;;-0.95;67.80
54666;BME280;40566;50.006;36.180;2023-02-20T04:07:56;98666.94;;;-0.98;67.70
54666;BME280;40566;50.006;36.180;2023-02-20T04:12:56;98659.34;;;-0.96;67.64
54666;BME280;40566;50.006;36.180;2023-02-20T04:18:12;98662.72;;;-1.04;67.52
54666;BME280;40566;50.006;36.180;2023-02-20T04:23:16;98666.06;;;-1.09;67.64
54666;BME280;40566;50.006;36.180;2023-02-20T04:28:18;98666.94;;;-1.12;67.63
54666;BME280;40566;50.006;36.180;2023-02-20T04:33:20;98668.63;;;-1.12;67.62
54666;BME280;40566;50.006;36.180;2023-02-20T04:38:20;98671.16;;;-1.11;67.51
54666;BME280;40566;50.006;36.180;2023-02-20T04:43:21;98676.19;;;-1.18;67.62
54666;BME280;40566;50.006;36.180;2023-02-20T04:48:22;98673.69;;;-1.20;67.59
54666;BME280;40566;50.006;36.180;2023-02-20T04:53:22;98673.69;;;-1.22;67.56
54666;BME280;40566;50.006;36.180;2023-02-20T04:58:24;98673.66;;;-1.25;67.61
54666;BME280;40566;50.006;36.180;2023-02-20T05:03:24;98674.53;;;-1.24;67.63
54666;BME280;40566;50.006;36.180;2023-02-20T05:08:25;98666.88;;;-1.23;67.58
54666;BME280;40566;50.006;36.180;2023-02-20T05:13:25;98671.13;;;-1.23;67.61
54666;BME280;40566;50.006;36.180;2023-02-20T05:18:28;98667.75;;;-1.28;68.01
54666;BME280;40566;50.006;36.180;2023-02-20T05:23:28;98676.19;;;-1.23;67.84
54666;BME280;40566;50.006;36.180;2023-02-20T05:28:29;98670.28;;;-1.22;67.96
54666;BME280;40566;50.006;36.180;2023-02-20T05:33:30;98673.66;;;-1.25;68.14
54666;BME280;40566;50.006;36.180;2023-02-20T05:38:30;98685.53;;;-1.17;68.09
54666;BME280;40566;50.006;36.180;2023-02-20T05:43:31;98678.78;;;-1.12;67.91
54666;BME280;40566;50.006;36.180;2023-02-20T05:48:32;98681.28;;;-1.11;67.81
54666;BME280;40566;50.006;36.180;2023-02-20T05:53:32;98684.69;;;-1.09;67.84
54666;BME280;40566;50.006;36.180;2023-02-20T05:58:33;98686.38;;;-1.08;67.91
54666;BME280;40566;50.006;36.180;2023-02-20T06:03:35;98683.88;;;-1.00;67.79
54666;BME280;40566;50.006;36.180;2023-02-20T06:08:35;98687.25;;;-0.92;67.60
54666;BME280;40566;50.006;36.180;2023-02-20T06:13:38;98688.09;;;-0.93;67.59
54666;BME280;40566;50.006;36.180;2023-02-20T06:18:41;98689.78;;;-0.80;67.69
54666;BME280;40566;50.006;36.180;2023-02-20T06:23:43;98681.34;;;-0.75;67.61
54666;BME280;40566;50.006;36.180;2023-02-20T06:28:46;98694.88;;;-0.66;67.58
54666;BME280;40566;50.006;36.180;2023-02-20T06:33:49;98702.50;;;-0.49;67.43
54666;BME280;40566;50.006;36.180;2023-02-20T06:38:50;98699.13;;;-0.29;67.20
54666;BME280;40566;50.006;36.180;2023-02-20T06:43:51;98701.63;;;-0.18;67.10
54666;BME280;40566;50.006;36.180;2023-02-20T06:48:55;98696.53;;;-0.03;66.73
54666;BME280;40566;50.006;36.180;2023-02-20T06:53:56;98700.75;;;0.01;66.88
54666;BME280;40566;50.006;36.180;2023-02-20T06:58:57;98703.25;;;0.13;66.60
54666;BME280;40566;50.006;36.180;2023-02-20T07:03:58;98704.94;;;0.22;66.71
54666;BME280;40566;50.006;36.180;2023-02-20T07:08:59;98703.13;;;0.47;66.23
54666;BME280;40566;50.006;36.180;2023-02-20T07:13:59;98701.34;;;0.71;65.77
54666;BME280;40566;50.006;36.180;2023-02-20T07:19:00;98696.16;;;0.86;65.45
54666;BME280;40566;50.006;36.180;2023-02-20T07:24:00;98688.56;;;0.78;65.78
54666;BME280;40566;50.006;36.180;2023-02-20T07:29:01;98696.25;;;0.74;65.62
54666;BME280;40566;50.006;36.180;2023-02-20T07:34:02;98687.69;;;0.84;65.65
54666;BME280;40566;50.006;36.180;2023-02-20T07:39:03;98677.28;;;1.23;64.93
54666;BME280;40566;50.006;36.180;2023-02-20T07:44:06;98688.91;;;1.51;64.25
54666;BME280;40566;50.006;36.180;2023-02-20T07:49:06;98681.91;;;1.75;63.91
54666;BME280;40566;50.006;36.180;2023-02-20T07:54:07;98691.22;;;1.81;63.79
54666;BME280;40566;50.006;36.180;2023-02-20T07:59:08;98685.28;;;1.80;63.45
54666;BME280;40566;50.006;36.180;2023-02-20T08:04:09;98688.53;;;1.93;63.03
54666;BME280;40566;50.006;36.180;2023-02-20T08:09:09;98686.09;;;1.82;63.14
54666;BME280;40566;50.006;36.180;2023-02-20T08:14:12;98677.84;;;1.55;63.79
54666;BME280;40566;50.006;36.180;2023-02-20T08:19:13;98674.13;;;1.90;62.46
54666;BME280;40566;50.006;36.180;2023-02-20T08:24:13;98685.38;;;1.68;62.39
54666;BME280;40566;50.006;36.180;2023-02-20T08:29:15;98673.63;;;1.54;63.04
54666;BME280;40566;50.006;36.180;2023-02-20T08:34:15;98669.63;;;2.12;61.76
54666;BME280;40566;50.006;36.180;2023-02-20T08:39:16;98676.00;;;2.49;60.78
54666;BME280;40566;50.006;36.180;2023-02-20T08:44:17;98669.75;;;2.71;60.33
54666;BME280;40566;50.006;36.180;2023-02-20T08:49:17;98680.16;;;3.71;58.15
54666;BME280;40566;50.006;36.180;2023-02-20T08:54:18;98686.44;;;3.53;58.67
54666;BME280;40566;50.006;36.180;2023-02-20T08:59:19;98677.16;;;2.91;59.83
54666;BME280;40566;50.006;36.180;2023-02-20T09:04:19;98685.16;;;2.65;60.45
54666;BME280;40566;50.006;36.180;2023-02-20T09:09:21;98671.81;;;3.08;59.10
54666;BME280;40566;50.006;36.180;2023-02-20T09:14:21;98674.06;;;3.27;58.90
54666;BME280;40566;50.006;36.180;2023-02-20T09:19:22;98665.75;;;3.67;57.12
54666;BME280;40566;50.006;36.180;2023-02-20T09:24:24;98670.63;;;6.43;50.96
54666;BME280;40566;50.006;36.180;2023-02-20T09:29:24;98670.97;;;5.98;50.80
54666;BME280;40566;50.006;36.180;2023-02-20T09:34:25;98659.09;;;5.25;53.21
54666;BME280;40566;50.006;36.180;2023-02-20T09:39:25;98674.53;;;4.00;56.05
54666;BME280;40566;50.006;36.180;2023-02-20T09:44:50;98672.81;;;4.01;56.41
54666;BME280;40566;50.006;36.180;2023-02-20T09:50:02;98661.19;;;3.33;57.07
54666;BME280;40566;50.006;36.180;2023-02-20T09:55:09;98666.31;;;2.74;58.22
54666;BME280;40566;50.006;36.180;2023-02-20T10:00:20;98661.19;;;2.75;57.93
54666;BME280;40566;50.006;36.180;2023-02-20T10:05:24;98660.41;;;2.70;58.04
54666;BME280;40566;50.006;36.180;2023-02-20T10:10:31;98654.72;;;2.50;57.93
54666;BME280;40566;50.006;36.180;2023-02-20T10:21:14;98655.06;;;2.22;57.94
54666;BME280;40566;50.006;36.180;2023-02-20T10:26:26;98646.75;;;2.06;58.12
54666;BME280;40566;50.006;36.180;2023-02-20T10:31:36;98639.13;;;2.03;57.81
54666;BME280;40566;50.006;36.180;2023-02-20T10:36:49;98643.38;;;2.06;57.68
54666;BME280;40566;50.006;36.180;2023-02-20T10:42:14;98637.06;;;2.33;57.19
54666;BME280;40566;50.006;36.180;2023-02-20T10:47:24;98630.09;;;2.47;56.66
54666;BME280;40566;50.006;36.180;2023-02-20T10:52:31;98623.28;;;2.48;56.77
54666;BME280;40566;50.006;36.180;2023-02-20T11:02:47;98617.59;;;2.27;57.01
54666;BME280;40566;50.006;36.180;2023-02-20T11:07:52;98614.16;;;2.31;56.95
54666;BME280;40566;50.006;36.180;2023-02-20T11:12:57;98601.56;;;2.17;57.03
54666;BME280;40566;50.006;36.180;2023-02-20T11:18:10;98603.41;;;2.03;57.18
54666;BME280;40566;50.006;36.180;2023-02-20T11:23:39;98609.47;;;1.97;57.32
54666;BME280;40566;50.006;36.180;2023-02-20T11:28:40;98611.88;;;2.05;57.15
54666;BME280;40566;50.006;36.180;2023-02-20T11:33:43;98616.22;;;2.02;57.15
54666;BME280;40566;50.006;36.180;2023-02-20T11:38:46;98615.38;;;2.00;56.87
54666;BME280;40566;50.006;36.180;2023-02-20T11:43:47;98620.50;;;1.95;57.20
54666;BME280;40566;50.006;36.180;2023-02-20T11:49:06;98615.56;;;1.84;57.09
54666;BME280;40566;50.006;36.180;2023-02-20T11:59:40;98614.41;;;2.10;56.55
54666;BME280;40566;50.006;36.180;2023-02-20T12:04:43;98629.66;;;2.13;56.61
54666;BME280;40566;50.006;36.180;2023-02-20T12:09:45;98621.34;;;1.98;56.75
54666;BME280;40566;50.006;36.180;2023-02-20T12:14:51;98614.34;;;2.14;56.63
54666;BME280;40566;50.006;36.180;2023-02-20T12:20:12;98609.88;;;2.33;55.84
54666;BME280;40566;50.006;36.180;2023-02-20T12:25:44;98611.44;;;2.42;56.00
54666;BME280;40566;50.006;36.180;2023-02-20T12:47:15;98617.19;;;1.90;56.83
54666;BME280;40566;50.006;36.180;2023-02-20T12:52:35;98606.25;;;1.78;57.03
54666;BME280;40566;50.006;36.180;2023-02-20T12:57:45;98610.44;;;1.84;57.07
54666;BME280;40566;50.006;36.180;2023-02-20T13:02:50;98612.13;;;1.84;57.07
54666;BME280;40566;50.006;36.180;2023-02-20T13:08:06;98616.56;;;1.68;57.10
54666;BME280;40566;50.006;36.180;2023-02-20T13:13:09;98614.06;;;1.65;57.32
54666;BME280;40566;50.006;36.180;2023-02-20T13:33:32;98613.97;;;1.72;57.17
54666;BME280;40566;50.006;36.180;2023-02-20T13:38:35;98628.44;;;1.69;57.56
54666;BME280;40566;50.006;36.180;2023-02-20T13:43:37;98621.78;;;1.57;57.57
54666;BME280;40566;50.006;36.180;2023-02-20T13:48:40;98626.94;;;1.49;57.92
54666;BME280;40566;50.006;36.180;2023-02-20T13:53:43;98626.13;;;1.46;58.13
54666;BME280;40566;50.006;36.180;2023-02-20T13:58:45;98625.34;;;1.36;58.19
54666;BME280;40566;50.006;36.180;2023-02-20T14:03:59;98633.81;;;1.43;58.04
54666;BME280;40566;50.006;36.180;2023-02-20T14:09:10;98632.97;;;1.39;58.17
54666;BME280;40566;50.006;36.180;2023-02-20T14:14:33;98641.63;;;1.21;58.43
54666;BME280;40566;50.006;36.180;2023-02-20T14:19:41;98647.63;;;1.12;58.60
54666;BME280;40566;50.006;36.180;2023-02-20T14:24:42;98640.84;;;1.08;58.67
54666;BME280;40566;50.006;36.180;2023-02-20T14:29:42;98645.16;;;1.00;58.95
54666;BME280;40566;50.006;36.180;2023-02-20T14:40:03;98656.28;;;0.87;59.22
54666;BME280;40566;50.006;36.180;2023-02-20T14:45:11;98647.84;;;0.83;59.31
54666;BME280;40566;50.006;36.180;2023-02-20T14:55:24;98657.16;;;0.86;59.45
54666;BME280;40566;50.006;36.180;2023-02-20T15:00:33;98654.69;;;0.70;60.15
54666;BME280;40566;50.006;36.180;2023-02-20T15:05:34;98659.75;;;0.76;60.22
54666;BME280;40566;50.006;36.180;2023-02-20T15:10:38;98659.00;;;0.57;60.69
54666;BME280;40566;50.006;36.180;2023-02-20T15:15:42;98660.75;;;0.45;61.22
54666;BME280;40566;50.006;36.180;2023-02-20T15:20:46;98665.84;;;0.43;61.19
54666;BME280;40566;50.006;36.180;2023-02-20T15:25:48;98666.78;;;0.28;61.61
54666;BME280;40566;50.006;36.180;2023-02-20T15:36:11;98661.78;;;0.02;62.64
54666;BME280;40566;50.006;36.180;2023-02-20T15:41:13;98666.00;;;0.05;62.84
54666;BME280;40566;50.006;36.180;2023-02-20T15:46:15;98663.47;;;0.05;62.83
54666;BME280;40566;50.006;36.180;2023-02-20T15:51:20;98672.78;;;0.09;62.78
54666;BME280;40566;50.006;36.180;2023-02-20T15:56:21;98665.13;;;0.18;62.54
54666;BME280;40566;50.006;36.180;2023-02-20T16:01:22;98660.03;;;0.15;62.94
54666;BME280;40566;50.006;36.180;2023-02-20T16:06:22;98661.72;;;0.19;62.79
54666;BME280;40566;50.006;36.180;2023-02-20T16:11:27;98658.34;;;0.18;63.05
54666;BME280;40566;50.006;36.180;2023-02-20T16:16:34;98655.75;;;0.22;62.82
54666;BME280;40566;50.006;36.180;2023-02-20T16:21:36;98648.97;;;0.27;62.72
54666;BME280;40566;50.006;36.180;2023-02-20T16:26:39;98645.59;;;0.22;62.61
54666;BME280;40566;50.006;36.180;2023-02-20T16:37:00;98638.00;;;0.18;62.81
54666;BME280;40566;50.006;36.180;2023-02-20T16:42:14;98627.78;;;0.23;62.53
54666;BME280;40566;50.006;36.180;2023-02-20T16:47:22;98640.53;;;0.18;62.70
54666;BME280;40566;50.006;36.180;2023-02-20T16:52:26;98627.84;;;0.11;62.75
54666;BME280;40566;50.006;36.180;2023-02-20T16:57:28;98621.94;;;0.09;62.78
54666;BME280;40566;50.006;36.180;2023-02-20T17:02:30;98610.06;;;0.05;62.81
54666;BME280;40566;50.006;36.180;2023-02-20T17:07:32;98599.06;;;0.04;62.81
54666;BME280;40566;50.006;36.180;2023-02-20T17:12:33;98593.13;;;0.05;62.81
54666;BME280;40566;50.006;36.180;2023-02-20T17:17:35;98587.16;;;0.09;62.84
54666;BME280;40566;50.006;36.180;2023-02-20T17:22:36;98582.09;;;0.11;62.74
54666;BME280;40566;50.006;36.180;2023-02-20T17:27:37;98573.63;;;0.09;62.86
54666;BME280;40566;50.006;36.180;2023-02-20T17:32:38;98570.25;;;0.05;63.08
54666;BME280;40566;50.006;36.180;2023-02-20T17:37:39;98569.41;;;0.05;63.07
54666;BME280;40566;50.006;36.180;2023-02-20T17:42:39;98557.53;;;0.08;63.17
54666;BME280;40566;50.006;36.180;2023-02-20T17:47:41;98556.66;;;0.14;62.90
54666;BME280;40566;50.006;36.180;2023-02-20T17:52:42;98544.78;;;0.13;62.82
54666;BME280;40566;50.006;36.180;2023-02-20T17:57:44;98539.69;;;0.10;62.98
54666;BME280;40566;50.006;36.180;2023-02-20T18:02:44;98531.25;;;0.11;62.94
54666;BME280;40566;50.006;36.180;2023-02-20T18:07:45;98532.97;;;0.03;63.14
54666;BME280;40566;50.006;36.180;2023-02-20T18:12:46;98525.38;;;-0.05;63.25
54666;BME280;40566;50.006;36.180;2023-02-20T18:18:02;98527.03;;;0.05;63.11
54666;BME280;40566;50.006;36.180;2023-02-20T18:23:03;98518.53;;;0.12;62.76
54666;BME280;40566;50.006;36.180;2023-02-20T18:28:04;98519.34;;;0.16;62.74
54666;BME280;40566;50.006;36.180;2023-02-20T18:33:05;98498.13;;;0.20;62.74
54666;BME280;40566;50.006;36.180;2023-02-20T18:38:05;98487.94;;;0.28;62.57
54666;BME280;40566;50.006;36.180;2023-02-20T18:43:06;98482.84;;;0.28;62.51
54666;BME280;40566;50.006;36.180;2023-02-20T18:48:07;98480.28;;;0.28;62.64
54666;BME280;40566;50.006;36.180;2023-02-20T18:53:08;98474.34;;;0.26;62.74
54666;BME280;40566;50.006;36.180;2023-02-20T18:58:09;98471.78;;;0.30;62.77
54666;BME280;40566;50.006;36.180;2023-02-20T19:03:10;98458.25;;;0.28;62.56
54666;BME280;40566;50.006;36.180;2023-02-20T19:08:10;98465.00;;;0.31;62.81
54666;BME280;40566;50.006;36.180;2023-02-20T19:13:11;98463.28;;;0.34;62.85
54666;BME280;40566;50.006;36.180;2023-02-20T19:18:11;98463.28;;;0.31;62.76
54666;BME280;40566;50.006;36.180;2023-02-20T19:23:12;98454.81;;;0.34;62.79
54666;BME280;40566;50.006;36.180;2023-02-20T19:28:13;98441.28;;;0.29;62.87
54666;BME280;40566;50.006;36.180;2023-02-20T19:33:13;98433.72;;;0.19;63.30
54666;BME280;40566;50.006;36.180;2023-02-20T19:38:14;98427.72;;;0.27;62.97
54666;BME280;40566;50.006;36.180;2023-02-20T19:43:14;98421.75;;;0.32;62.87
54666;BME280;40566;50.006;36.180;2023-02-20T19:48:15;98407.31;;;0.34;62.91
54666;BME280;40566;50.006;36.180;2023-02-20T19:53:16;98404.78;;;0.33;63.04
54666;BME280;40566;50.006;36.180;2023-02-20T19:58:16;98398.81;;;0.38;62.90
54666;BME280;40566;50.006;36.180;2023-02-20T20:03:17;98387.81;;;0.36;63.00
54666;BME280;40566;50.006;36.180;2023-02-20T20:08:17;98366.66;;;0.31;63.04
54666;BME280;40566;50.006;36.180;2023-02-20T20:13:18;98365.06;;;0.21;63.26
54666;BME280;40566;50.006;36.180;2023-02-20T20:18:19;98353.28;;;0.08;63.58
54666;BME280;40566;50.006;36.180;2023-02-20T20:23:20;98347.44;;;-0.02;63.85
54666;BME280;40566;50.006;36.180;2023-02-20T20:28:20;98343.13;;;0.08;63.28
54666;BME280;40566;50.006;36.180;2023-02-20T20:33:21;98322.00;;;0.04;63.49
54666;BME280;40566;50.006;36.180;2023-02-20T20:38:22;98307.63;;;-0.03;63.56
54666;BME280;40566;50.006;36.180;2023-02-20T20:43:23;98312.78;;;-0.12;63.67
54666;BME280;40566;50.006;36.180;2023-02-20T20:48:23;98303.63;;;-0.29;64.05
54666;BME280;40566;50.006;36.180;2023-02-20T20:53:24;98302.00;;;-0.39;64.10
54666;BME280;40566;50.006;36.180;2023-02-20T20:58:24;98287.66;;;-0.48;64.24
54666;BME280;40566;50.006;36.180;2023-02-20T21:03:25;98277.53;;;-0.54;64.32
54666;BME280;40566;50.006;36.180;2023-02-20T21:08:26;98271.66;;;-0.62;64.26
54666;BME280;40566;50.006;36.180;2023-02-20T21:13:26;98248.81;;;-0.59;64.24
54666;BME280;40566;50.006;36.180;2023-02-20T21:18:27;98242.91;;;-0.66;64.34
54666;BME280;40566;50.006;36.180;2023-02-20T21:23:27;98242.09;;;-0.69;64.51
54666;BME280;40566;50.006;36.180;2023-02-20T21:28:28;98234.47;;;-0.69;64.62
54666;BME280;40566;50.006;36.180;2023-02-20T21:33:29;98226.03;;;-0.68;64.47
54666;BME280;40566;50.006;36.180;2023-02-20T21:38:30;98210.00;;;-0.76;64.53
54666;BME280;40566;50.006;36.180;2023-02-20T21:43:32;98202.44;;;-0.86;64.86
54666;BME280;40566;50.006;36.180;2023-02-20T21:48:51;98187.25;;;-0.92;64.89
54666;BME280;40566;50.006;36.180;2023-02-20T21:53:51;98172.91;;;-0.99;64.97
54666;BME280;40566;50.006;36.180;2023-02-20T21:58:54;98166.19;;;-1.00;65.18
54666;BME280;40566;50.006;36.180;2023-02-20T22:04:01;98155.97;;;-0.91;65.13
54666;BME280;40566;50.006;36.180;2023-02-20T22:09:02;98142.31;;;-0.77;64.75
54666;BME280;40566;50.006;36.180;2023-02-20T22:14:21;98128.66;;;-0.67;64.58
54666;BME280;40566;50.006;36.180;2023-02-20T22:19:40;98111.81;;;-0.73;64.90
54666;BME280;40566;50.006;36.180;2023-02-20T22:25:00;98100.78;;;-0.70;64.97
54666;BME280;40566;50.006;36.180;2023-02-20T22:30:19;98081.25;;;-0.64;64.93
54666;BME280;40566;50.006;36.180;2023-02-20T22:35:38;98060.03;;;-0.56;64.90
54666;BME280;40566;50.006;36.180;2023-02-20T22:40:58;98046.44;;;-0.54;64.95
54666;BME280;40566;50.006;36.180;2023-02-20T22:46:21;98038.81;;;-0.51;64.98
54666;BME280;40566;50.006;36.180;2023-02-20T22:51:45;98017.59;;;-0.47;65.06
54666;BME280;40566;50.006;36.180;2023-02-20T22:57:05;98000.66;;;-0.45;65.22
54666;BME280;40566;50.006;36.180;2023-02-20T23:02:24;97992.16;;;-0.44;65.32
54666;BME280;40566;50.006;36.180;2023-02-20T23:07:43;97980.34;;;-0.46;65.87
54666;BME280;40566;50.006;36.180;2023-02-20T23:13:03;97959.94;;;-0.40;65.85
54666;BME280;40566;50.006;36.180;2023-02-20T23:18:22;97943.88;;;-0.42;66.55
54666;BME280;40566;50.006;36.180;2023-02-20T23:23:42;97936.22;;;-0.39;66.71
54666;BME280;40566;50.006;36.180;2023-02-20T23:29:01;97918.47;;;-0.41;66.88
54666;BME280;40566;50.006;36.180;2023-02-20T23:34:21;97889.59;;;-0.33;67.21
54666;BME280;40566;50.006;36.180;2023-02-20T23:39:41;97883.63;;;-0.31;67.54
54666;BME280;40566;50.006;36.180;2023-02-20T23:45:05;97869.22;;;-0.32;67.86
54666;BME280;40566;50.006;36.180;2023-02-20T23:50:24;97846.44;;;-0.36;68.40
54666;BME280;40566;50.006;36.180;2023-02-20T23:55:43;97826.94;;;-0.34;68.49
